Radisson, Wisconsin
Current Conditions -  °F | °C
As of 3:53 AM on Wednesday 26 Nov 2014 (Local Time) from KHYR Reporting Station
Overcast Overcast  
Wind Chill: 20°   Ceiling: 5000
Heat Index: 20°   Visibility: NA
Dew Point: 16°   Wind: 0mph
Humidity: 85%   Direction: NA
Pressure: 30.08"   Gusts: NA
Location:  45.77°N, 91.22°W
Report Text: KHYR 260953Z AUTO 00000KT OVC050 M07/M09 A3008 RMK AO2 SLP209 T10671089 $
Loading
Personal Weather Stations






























Interactive Weather Map New forecast layout! Learn more

10-Day Weather Forecast

Advertisements
Track Severe Weather on mobile